sensor_id;sensor_type;location;lat;lon;timestamp;P1;durP1;ratioP1;P2;durP2;ratioP2
10711;SDS011;5407;51.234;6.804;2023-02-22T00:00:11;9.50;;;8.32;;
10711;SDS011;5407;51.234;6.804;2023-02-22T00:02:47;10.13;;;8.48;;
10711;SDS011;5407;51.234;6.804;2023-02-22T00:05:14;9.98;;;8.60;;
10711;SDS011;5407;51.234;6.804;2023-02-22T00:07:44;9.55;;;8.55;;
10711;SDS011;5407;51.234;6.804;2023-02-22T00:10:12;9.07;;;8.18;;
10711;SDS011;5407;51.234;6.804;2023-02-22T00:12:45;9.45;;;8.52;;
10711;SDS011;5407;51.234;6.804;2023-02-22T00:15:15;8.98;;;7.85;;
10711;SDS011;5407;51.234;6.804;2023-02-22T00:17:43;8.57;;;7.72;;
10711;SDS011;5407;51.234;6.804;2023-02-22T00:20:11;8.82;;;7.57;;
10711;SDS011;5407;51.234;6.804;2023-02-22T00:22:39;8.18;;;7.38;;
10711;SDS011;5407;51.234;6.804;2023-02-22T00:25:07;7.88;;;7.07;;
10711;SDS011;5407;51.234;6.804;2023-02-22T00:27:34;8.07;;;7.15;;
10711;SDS011;5407;51.234;6.804;2023-02-22T00:30:01;8.25;;;7.40;;
10711;SDS011;5407;51.234;6.804;2023-02-22T00:32:31;8.52;;;7.70;;
10711;SDS011;5407;51.234;6.804;2023-02-22T00:34:58;7.82;;;7.13;;
10711;SDS011;5407;51.234;6.804;2023-02-22T00:37:25;8.38;;;7.57;;
10711;SDS011;5407;51.234;6.804;2023-02-22T00:39:55;7.60;;;6.80;;
10711;SDS011;5407;51.234;6.804;2023-02-22T00:42:22;7.47;;;6.78;;
10711;SDS011;5407;51.234;6.804;2023-02-22T00:44:50;7.55;;;6.85;;
10711;SDS011;5407;51.234;6.804;2023-02-22T00:47:17;7.38;;;6.68;;
10711;SDS011;5407;51.234;6.804;2023-02-22T00:49:45;7.38;;;6.50;;
10711;SDS011;5407;51.234;6.804;2023-02-22T00:52:13;7.78;;;6.97;;
10711;SDS011;5407;51.234;6.804;2023-02-22T00:54:40;7.20;;;6.50;;
10711;SDS011;5407;51.234;6.804;2023-02-22T00:57:07;6.72;;;6.13;;
10711;SDS011;5407;51.234;6.804;2023-02-22T00:59:34;7.25;;;6.55;;
10711;SDS011;5407;51.234;6.804;2023-02-22T01:02:00;8.00;;;7.20;;
10711;SDS011;5407;51.234;6.804;2023-02-22T01:04:27;7.35;;;6.65;;
10711;SDS011;5407;51.234;6.804;2023-02-22T01:06:56;7.10;;;6.50;;
10711;SDS011;5407;51.234;6.804;2023-02-22T01:09:25;7.13;;;6.43;;
10711;SDS011;5407;51.234;6.804;2023-02-22T01:11:52;7.25;;;6.57;;
10711;SDS011;5407;51.234;6.804;2023-02-22T01:14:22;6.75;;;6.15;;
10711;SDS011;5407;51.234;6.804;2023-02-22T01:16:50;7.20;;;6.50;;
10711;SDS011;5407;51.234;6.804;2023-02-22T01:19:18;6.75;;;6.15;;
10711;SDS011;5407;51.234;6.804;2023-02-22T01:21:46;6.68;;;6.07;;
10711;SDS011;5407;51.234;6.804;2023-02-22T01:24:15;6.75;;;6.15;;
10711;SDS011;5407;51.234;6.804;2023-02-22T01:26:43;6.45;;;5.85;;
10711;SDS011;5407;51.234;6.804;2023-02-22T01:29:16;6.93;;;6.30;;
10711;SDS011;5407;51.234;6.804;2023-02-22T01:31:49;6.45;;;5.90;;
10711;SDS011;5407;51.234;6.804;2023-02-22T01:34:19;6.88;;;6.22;;
10711;SDS011;5407;51.234;6.804;2023-02-22T01:36:46;7.65;;;6.55;;
10711;SDS011;5407;51.234;6.804;2023-02-22T01:39:13;7.05;;;6.30;;
10711;SDS011;5407;51.234;6.804;2023-02-22T01:41:42;7.40;;;6.30;;
10711;SDS011;5407;51.234;6.804;2023-02-22T01:44:25;6.95;;;6.25;;
10711;SDS011;5407;51.234;6.804;2023-02-22T01:46:54;7.18;;;6.28;;
10711;SDS011;5407;51.234;6.804;2023-02-22T01:49:22;6.65;;;5.97;;
10711;SDS011;5407;51.234;6.804;2023-02-22T01:51:52;6.88;;;6.22;;
10711;SDS011;5407;51.234;6.804;2023-02-22T01:54:23;7.13;;;6.43;;
10711;SDS011;5407;51.234;6.804;2023-02-22T01:56:56;6.10;;;5.55;;
10711;SDS011;5407;51.234;6.804;2023-02-22T01:59:25;6.70;;;6.05;;
10711;SDS011;5407;51.234;6.804;2023-02-22T02:01:57;6.03;;;5.53;;
10711;SDS011;5407;51.234;6.804;2023-02-22T02:04:24;6.50;;;5.90;;
10711;SDS011;5407;51.234;6.804;2023-02-22T02:06:57;6.10;;;5.50;;
10711;SDS011;5407;51.234;6.804;2023-02-22T02:09:29;6.25;;;5.65;;
10711;SDS011;5407;51.234;6.804;2023-02-22T02:12:00;6.97;;;6.28;;
10711;SDS011;5407;51.234;6.804;2023-02-22T02:14:29;7.07;;;6.38;;
10711;SDS011;5407;51.234;6.804;2023-02-22T02:16:57;6.38;;;5.78;;
10711;SDS011;5407;51.234;6.804;2023-02-22T02:19:28;6.20;;;5.60;;
10711;SDS011;5407;51.234;6.804;2023-02-22T02:22:16;6.30;;;5.70;;
10711;SDS011;5407;51.234;6.804;2023-02-22T02:31:25;6.47;;;5.85;;
10711;SDS011;5407;51.234;6.804;2023-02-22T02:34:11;6.45;;;5.82;;
10711;SDS011;5407;51.234;6.804;2023-02-22T02:36:46;6.05;;;5.45;;
10711;SDS011;5407;51.234;6.804;2023-02-22T02:39:23;6.07;;;5.47;;
10711;SDS011;5407;51.234;6.804;2023-02-22T02:41:54;5.63;;;5.13;;
10711;SDS011;5407;51.234;6.804;2023-02-22T02:44:26;6.28;;;5.32;;
10711;SDS011;5407;51.234;6.804;2023-02-22T02:46:59;6.80;;;6.10;;
10711;SDS011;5407;51.234;6.804;2023-02-22T02:49:30;6.43;;;5.82;;
10711;SDS011;5407;51.234;6.804;2023-02-22T02:52:00;6.88;;;6.13;;
10711;SDS011;5407;51.234;6.804;2023-02-22T02:54:30;6.13;;;5.53;;
10711;SDS011;5407;51.234;6.804;2023-02-22T02:56:58;6.22;;;5.63;;
10711;SDS011;5407;51.234;6.804;2023-02-22T02:59:26;6.78;;;6.07;;
10711;SDS011;5407;51.234;6.804;2023-02-22T03:02:05;5.70;;;5.10;;
10711;SDS011;5407;51.234;6.804;2023-02-22T03:04:50;6.30;;;5.70;;
10711;SDS011;5407;51.234;6.804;2023-02-22T03:07:27;5.50;;;5.00;;
10711;SDS011;5407;51.234;6.804;2023-02-22T03:10:08;5.93;;;5.28;;
10711;SDS011;5407;51.234;6.804;2023-02-22T03:12:48;6.32;;;5.72;;
10711;SDS011;5407;51.234;6.804;2023-02-22T03:15:26;5.88;;;5.38;;
10711;SDS011;5407;51.234;6.804;2023-02-22T03:18:00;5.88;;;5.28;;
10711;SDS011;5407;51.234;6.804;2023-02-22T03:20:35;5.60;;;5.10;;
10711;SDS011;5407;51.234;6.804;2023-02-22T03:23:10;6.05;;;5.45;;
10711;SDS011;5407;51.234;6.804;2023-02-22T03:25:50;6.18;;;5.50;;
10711;SDS011;5407;51.234;6.804;2023-02-22T03:28:19;5.63;;;5.13;;
10711;SDS011;5407;51.234;6.804;2023-02-22T03:30:52;6.13;;;5.53;;
10711;SDS011;5407;51.234;6.804;2023-02-22T03:33:24;5.80;;;5.28;;
10711;SDS011;5407;51.234;6.804;2023-02-22T03:36:01;5.80;;;5.30;;
10711;SDS011;5407;51.234;6.804;2023-02-22T03:38:34;5.80;;;5.30;;
10711;SDS011;5407;51.234;6.804;2023-02-22T03:41:03;7.15;;;5.47;;
10711;SDS011;5407;51.234;6.804;2023-02-22T03:43:37;5.97;;;5.40;;
10711;SDS011;5407;51.234;6.804;2023-02-22T03:46:12;5.72;;;5.22;;
10711;SDS011;5407;51.234;6.804;2023-02-22T03:48:42;5.90;;;5.40;;
10711;SDS011;5407;51.234;6.804;2023-02-22T03:51:17;5.80;;;5.30;;
10711;SDS011;5407;51.234;6.804;2023-02-22T03:53:49;5.97;;;5.38;;
10711;SDS011;5407;51.234;6.804;2023-02-22T03:56:20;5.65;;;5.10;;
10711;SDS011;5407;51.234;6.804;2023-02-22T03:58:50;6.05;;;5.50;;
10711;SDS011;5407;51.234;6.804;2023-02-22T04:01:17;5.80;;;5.25;;
10711;SDS011;5407;51.234;6.804;2023-02-22T04:03:47;6.30;;;5.70;;
10711;SDS011;5407;51.234;6.804;2023-02-22T04:06:15;6.25;;;5.65;;
10711;SDS011;5407;51.234;6.804;2023-02-22T04:08:44;7.80;;;5.78;;
10711;SDS011;5407;51.234;6.804;2023-02-22T04:11:11;5.88;;;5.30;;
10711;SDS011;5407;51.234;6.804;2023-02-22T04:13:39;6.65;;;5.88;;
10711;SDS011;5407;51.234;6.804;2023-02-22T04:16:06;5.95;;;5.43;;
10711;SDS011;5407;51.234;6.804;2023-02-22T04:18:34;6.43;;;5.80;;
10711;SDS011;5407;51.234;6.804;2023-02-22T04:21:01;6.38;;;5.78;;
10711;SDS011;5407;51.234;6.804;2023-02-22T04:23:33;6.70;;;6.07;;
10711;SDS011;5407;51.234;6.804;2023-02-22T04:26:02;6.05;;;5.45;;
10711;SDS011;5407;51.234;6.804;2023-02-22T04:28:29;6.00;;;5.40;;
10711;SDS011;5407;51.234;6.804;2023-02-22T04:31:13;6.05;;;5.43;;
10711;SDS011;5407;51.234;6.804;2023-02-22T04:33:41;6.20;;;5.60;;
10711;SDS011;5407;51.234;6.804;2023-02-22T04:36:11;6.68;;;6.05;;
10711;SDS011;5407;51.234;6.804;2023-02-22T04:38:40;7.05;;;6.13;;
10711;SDS011;5407;51.234;6.804;2023-02-22T04:41:09;6.93;;;5.82;;
10711;SDS011;5407;51.234;6.804;2023-02-22T04:43:36;6.90;;;6.18;;
10711;SDS011;5407;51.234;6.804;2023-02-22T04:46:16;6.90;;;6.20;;
10711;SDS011;5407;51.234;6.804;2023-02-22T04:48:44;6.22;;;5.63;;
10711;SDS011;5407;51.234;6.804;2023-02-22T04:51:12;6.38;;;5.68;;
10711;SDS011;5407;51.234;6.804;2023-02-22T04:53:48;6.70;;;6.00;;
10711;SDS011;5407;51.234;6.804;2023-02-22T04:56:17;6.95;;;6.18;;
10711;SDS011;5407;51.234;6.804;2023-02-22T04:58:45;7.35;;;6.60;;
10711;SDS011;5407;51.234;6.804;2023-02-22T05:01:12;7.65;;;6.18;;
10711;SDS011;5407;51.234;6.804;2023-02-22T05:03:40;6.78;;;6.15;;
10711;SDS011;5407;51.234;6.804;2023-02-22T05:06:07;6.00;;;5.38;;
10711;SDS011;5407;51.234;6.804;2023-02-22T05:08:36;6.82;;;6.13;;
10711;SDS011;5407;51.234;6.804;2023-02-22T05:11:03;6.57;;;5.75;;
10711;SDS011;5407;51.234;6.804;2023-02-22T05:13:31;6.43;;;5.78;;
10711;SDS011;5407;51.234;6.804;2023-02-22T05:15:58;6.45;;;5.68;;
10711;SDS011;5407;51.234;6.804;2023-02-22T05:18:25;6.30;;;5.70;;
10711;SDS011;5407;51.234;6.804;2023-02-22T05:20:53;6.22;;;5.38;;
10711;SDS011;5407;51.234;6.804;2023-02-22T05:23:20;6.20;;;5.60;;
10711;SDS011;5407;51.234;6.804;2023-02-22T05:25:47;7.18;;;6.07;;
10711;SDS011;5407;51.234;6.804;2023-02-22T05:28:14;7.38;;;6.28;;
10711;SDS011;5407;51.234;6.804;2023-02-22T05:30:43;7.05;;;6.10;;
10711;SDS011;5407;51.234;6.804;2023-02-22T05:33:10;6.13;;;5.53;;
10711;SDS011;5407;51.234;6.804;2023-02-22T05:35:37;6.78;;;5.93;;
10711;SDS011;5407;51.234;6.804;2023-02-22T05:38:04;6.45;;;5.75;;
10711;SDS011;5407;51.234;6.804;2023-02-22T05:40:31;6.57;;;5.78;;
10711;SDS011;5407;51.234;6.804;2023-02-22T05:42:59;6.82;;;6.00;;
10711;SDS011;5407;51.234;6.804;2023-02-22T05:45:27;6.35;;;5.53;;
10711;SDS011;5407;51.234;6.804;2023-02-22T05:47:55;6.55;;;5.93;;
10711;SDS011;5407;51.234;6.804;2023-02-22T05:50:22;6.13;;;5.53;;
10711;SDS011;5407;51.234;6.804;2023-02-22T05:52:50;6.22;;;5.60;;
10711;SDS011;5407;51.234;6.804;2023-02-22T05:55:18;5.80;;;5.20;;
10711;SDS011;5407;51.234;6.804;2023-02-22T05:57:46;5.78;;;5.22;;
10711;SDS011;5407;51.234;6.804;2023-02-22T06:00:15;6.20;;;5.60;;
10711;SDS011;5407;51.234;6.804;2023-02-22T06:02:43;5.57;;;5.07;;
10711;SDS011;5407;51.234;6.804;2023-02-22T06:05:11;6.22;;;5.35;;
10711;SDS011;5407;51.234;6.804;2023-02-22T06:07:38;5.80;;;5.28;;
10711;SDS011;5407;51.234;6.804;2023-02-22T06:10:05;6.03;;;5.50;;
10711;SDS011;5407;51.234;6.804;2023-02-22T06:12:32;7.30;;;5.43;;
10711;SDS011;5407;51.234;6.804;2023-02-22T06:14:59;7.13;;;5.60;;
10711;SDS011;5407;51.234;6.804;2023-02-22T06:17:26;5.50;;;5.00;;
10711;SDS011;5407;51.234;6.804;2023-02-22T06:19:54;7.00;;;5.18;;
10711;SDS011;5407;51.234;6.804;2023-02-22T06:22:22;6.10;;;5.50;;
10711;SDS011;5407;51.234;6.804;2023-02-22T06:24:49;5.18;;;4.68;;
10711;SDS011;5407;51.234;6.804;2023-02-22T06:27:16;6.50;;;5.43;;
10711;SDS011;5407;51.234;6.804;2023-02-22T06:29:43;7.72;;;4.88;;
10711;SDS011;5407;51.234;6.804;2023-02-22T06:32:11;7.53;;;5.25;;
10711;SDS011;5407;51.234;6.804;2023-02-22T06:34:38;5.65;;;5.03;;
10711;SDS011;5407;51.234;6.804;2023-02-22T06:37:06;6.13;;;4.80;;
10711;SDS011;5407;51.234;6.804;2023-02-22T06:39:34;7.18;;;4.70;;
10711;SDS011;5407;51.234;6.804;2023-02-22T06:42:01;5.32;;;4.82;;
10711;SDS011;5407;51.234;6.804;2023-02-22T06:44:28;5.60;;;5.10;;
10711;SDS011;5407;51.234;6.804;2023-02-22T06:46:55;5.15;;;4.65;;
10711;SDS011;5407;51.234;6.804;2023-02-22T06:49:24;5.18;;;4.68;;
10711;SDS011;5407;51.234;6.804;2023-02-22T06:51:52;5.72;;;4.78;;
10711;SDS011;5407;51.234;6.804;2023-02-22T06:54:19;5.30;;;4.80;;
10711;SDS011;5407;51.234;6.804;2023-02-22T06:56:47;5.32;;;4.80;;
10711;SDS011;5407;51.234;6.804;2023-02-22T06:59:14;4.63;;;4.22;;
10711;SDS011;5407;51.234;6.804;2023-02-22T07:01:42;5.60;;;4.90;;
10711;SDS011;5407;51.234;6.804;2023-02-22T07:04:09;5.57;;;4.55;;
10711;SDS011;5407;51.234;6.804;2023-02-22T07:06:36;5.03;;;4.50;;
10711;SDS011;5407;51.234;6.804;2023-02-22T07:09:03;9.23;;;5.18;;
10711;SDS011;5407;51.234;6.804;2023-02-22T07:11:30;5.32;;;4.80;;
10711;SDS011;5407;51.234;6.804;2023-02-22T07:13:58;5.30;;;4.80;;
10711;SDS011;5407;51.234;6.804;2023-02-22T07:16:25;5.43;;;4.78;;
10711;SDS011;5407;51.234;6.804;2023-02-22T07:18:52;5.63;;;4.60;;
10711;SDS011;5407;51.234;6.804;2023-02-22T07:21:19;4.28;;;3.88;;
10711;SDS011;5407;51.234;6.804;2023-02-22T07:23:49;4.65;;;4.25;;
10711;SDS011;5407;51.234;6.804;2023-02-22T07:26:17;4.53;;;4.10;;
10711;SDS011;5407;51.234;6.804;2023-02-22T07:28:45;6.43;;;4.30;;
10711;SDS011;5407;51.234;6.804;2023-02-22T07:31:14;5.30;;;4.30;;
10711;SDS011;5407;51.234;6.804;2023-02-22T07:33:42;4.25;;;3.85;;
10711;SDS011;5407;51.234;6.804;2023-02-22T07:36:09;4.60;;;4.20;;
10711;SDS011;5407;51.234;6.804;2023-02-22T07:38:37;4.78;;;4.00;;
10711;SDS011;5407;51.234;6.804;2023-02-22T07:41:04;4.57;;;4.10;;
10711;SDS011;5407;51.234;6.804;2023-02-22T07:43:31;4.07;;;3.75;;
10711;SDS011;5407;51.234;6.804;2023-02-22T07:45:58;4.97;;;4.20;;
10711;SDS011;5407;51.234;6.804;2023-02-22T07:48:28;4.90;;;4.10;;
10711;SDS011;5407;51.234;6.804;2023-02-22T07:50:56;4.13;;;3.72;;
10711;SDS011;5407;51.234;6.804;2023-02-22T07:53:24;4.22;;;3.78;;
10711;SDS011;5407;51.234;6.804;2023-02-22T07:55:54;4.25;;;3.70;;
10711;SDS011;5407;51.234;6.804;2023-02-22T07:58:23;3.83;;;3.53;;
10711;SDS011;5407;51.234;6.804;2023-02-22T08:00:51;5.15;;;3.90;;
10711;SDS011;5407;51.234;6.804;2023-02-22T08:03:19;4.78;;;4.13;;
10711;SDS011;5407;51.234;6.804;2023-02-22T08:05:50;3.90;;;3.58;;
10711;SDS011;5407;51.234;6.804;2023-02-22T08:08:18;3.70;;;3.40;;
10711;SDS011;5407;51.234;6.804;2023-02-22T08:10:46;4.47;;;3.83;;
10711;SDS011;5407;51.234;6.804;2023-02-22T08:13:13;4.60;;;3.90;;
10711;SDS011;5407;51.234;6.804;2023-02-22T08:15:41;4.45;;;3.78;;
10711;SDS011;5407;51.234;6.804;2023-02-22T08:18:09;3.63;;;3.33;;
10711;SDS011;5407;51.234;6.804;2023-02-22T08:20:39;3.90;;;3.55;;
10711;SDS011;5407;51.234;6.804;2023-02-22T08:23:09;4.00;;;3.60;;
10711;SDS011;5407;51.234;6.804;2023-02-22T08:25:38;4.20;;;3.60;;
10711;SDS011;5407;51.234;6.804;2023-02-22T08:28:05;4.00;;;3.60;;
10711;SDS011;5407;51.234;6.804;2023-02-22T08:30:34;3.83;;;3.42;;
10711;SDS011;5407;51.234;6.804;2023-02-22T08:33:02;3.88;;;3.47;;
10711;SDS011;5407;51.234;6.804;2023-02-22T08:35:29;4.00;;;3.60;;
10711;SDS011;5407;51.234;6.804;2023-02-22T08:37:58;5.18;;;3.58;;
10711;SDS011;5407;51.234;6.804;2023-02-22T08:40:28;3.88;;;3.30;;
10711;SDS011;5407;51.234;6.804;2023-02-22T08:42:56;3.88;;;3.50;;
10711;SDS011;5407;51.234;6.804;2023-02-22T08:45:23;3.88;;;3.53;;
10711;SDS011;5407;51.234;6.804;2023-02-22T08:47:50;4.07;;;3.50;;
10711;SDS011;5407;51.234;6.804;2023-02-22T08:50:19;3.70;;;3.40;;
10711;SDS011;5407;51.234;6.804;2023-02-22T08:52:48;3.72;;;3.42;;
10711;SDS011;5407;51.234;6.804;2023-02-22T08:55:17;4.50;;;3.65;;
10711;SDS011;5407;51.234;6.804;2023-02-22T08:57:46;3.95;;;3.58;;
10711;SDS011;5407;51.234;6.804;2023-02-22T09:00:15;4.80;;;3.08;;
10711;SDS011;5407;51.234;6.804;2023-02-22T09:02:43;4.75;;;3.55;;
10711;SDS011;5407;51.234;6.804;2023-02-22T09:05:10;5.65;;;3.33;;
10711;SDS011;5407;51.234;6.804;2023-02-22T09:07:39;5.28;;;3.58;;
10711;SDS011;5407;51.234;6.804;2023-02-22T09:10:07;3.65;;;3.25;;
10711;SDS011;5407;51.234;6.804;2023-02-22T09:12:34;7.90;;;3.38;;
10711;SDS011;5407;51.234;6.804;2023-02-22T09:15:02;5.05;;;3.38;;
10711;SDS011;5407;51.234;6.804;2023-02-22T09:17:29;7.20;;;3.53;;
10711;SDS011;5407;51.234;6.804;2023-02-22T09:19:56;4.35;;;3.67;;
10711;SDS011;5407;51.234;6.804;2023-02-22T09:22:23;4.22;;;3.35;;
10711;SDS011;5407;51.234;6.804;2023-02-22T09:24:51;4.93;;;3.70;;
10711;SDS011;5407;51.234;6.804;2023-02-22T09:27:18;5.07;;;3.55;;
10711;SDS011;5407;51.234;6.804;2023-02-22T09:29:46;4.25;;;3.85;;
10711;SDS011;5407;51.234;6.804;2023-02-22T09:32:15;4.13;;;3.40;;
10711;SDS011;5407;51.234;6.804;2023-02-22T09:34:42;4.78;;;3.83;;
10711;SDS011;5407;51.234;6.804;2023-02-22T09:37:10;3.78;;;3.33;;
10711;SDS011;5407;51.234;6.804;2023-02-22T09:39:37;4.72;;;3.70;;
10711;SDS011;5407;51.234;6.804;2023-02-22T09:42:06;6.18;;;3.72;;
10711;SDS011;5407;51.234;6.804;2023-02-22T09:44:38;3.83;;;3.50;;
10711;SDS011;5407;51.234;6.804;2023-02-22T09:47:16;4.57;;;3.83;;
10711;SDS011;5407;51.234;6.804;2023-02-22T09:49:47;3.90;;;3.45;;
10711;SDS011;5407;51.234;6.804;2023-02-22T09:52:23;3.97;;;3.33;;
10711;SDS011;5407;51.234;6.804;2023-02-22T09:54:54;3.97;;;3.58;;
10711;SDS011;5407;51.234;6.804;2023-02-22T09:57:31;3.80;;;3.35;;
10711;SDS011;5407;51.234;6.804;2023-02-22T10:00:01;4.13;;;3.50;;
10711;SDS011;5407;51.234;6.804;2023-02-22T10:02:39;3.50;;;3.20;;
10711;SDS011;5407;51.234;6.804;2023-02-22T10:05:13;3.90;;;3.25;;
10711;SDS011;5407;51.234;6.804;2023-02-22T10:07:45;3.55;;;3.20;;
10711;SDS011;5407;51.234;6.804;2023-02-22T10:10:17;4.22;;;3.50;;
10711;SDS011;5407;51.234;6.804;2023-02-22T10:12:47;4.82;;;3.67;;
10711;SDS011;5407;51.234;6.804;2023-02-22T10:15:39;5.93;;;3.35;;
10711;SDS011;5407;51.234;6.804;2023-02-22T10:18:28;4.28;;;3.47;;
10711;SDS011;5407;51.234;6.804;2023-02-22T10:21:06;4.10;;;3.30;;
10711;SDS011;5407;51.234;6.804;2023-02-22T10:23:46;3.45;;;3.15;;
10711;SDS011;5407;51.234;6.804;2023-02-22T10:26:23;4.25;;;3.70;;
10711;SDS011;5407;51.234;6.804;2023-02-22T10:28:53;5.22;;;3.35;;
10711;SDS011;5407;51.234;6.804;2023-02-22T10:31:25;3.53;;;3.22;;
10711;SDS011;5407;51.234;6.804;2023-02-22T10:33:59;4.07;;;3.42;;
10711;SDS011;5407;51.234;6.804;2023-02-22T10:36:30;4.35;;;3.30;;
10711;SDS011;5407;51.234;6.804;2023-02-22T10:38:59;3.92;;;3.40;;
10711;SDS011;5407;51.234;6.804;2023-02-22T10:41:32;4.63;;;2.95;;
10711;SDS011;5407;51.234;6.804;2023-02-22T10:44:02;3.25;;;2.95;;
10711;SDS011;5407;51.234;6.804;2023-02-22T10:46:29;3.63;;;3.33;;
10711;SDS011;5407;51.234;6.804;2023-02-22T10:49:01;3.35;;;3.00;;
10711;SDS011;5407;51.234;6.804;2023-02-22T10:51:31;3.40;;;3.08;;
10711;SDS011;5407;51.234;6.804;2023-02-22T10:54:01;3.83;;;3.42;;
10711;SDS011;5407;51.234;6.804;2023-02-22T10:56:49;3.55;;;3.25;;
10711;SDS011;5407;51.234;6.804;2023-02-22T10:59:25;3.40;;;3.10;;
10711;SDS011;5407;51.234;6.804;2023-02-22T11:01:54;4.82;;;3.17;;
10711;SDS011;5407;51.234;6.804;2023-02-22T11:04:22;8.80;;;3.15;;
10711;SDS011;5407;51.234;6.804;2023-02-22T11:07:05;5.65;;;3.40;;
10711;SDS011;5407;51.234;6.804;2023-02-22T11:09:44;4.45;;;3.58;;
10711;SDS011;5407;51.234;6.804;2023-02-22T11:12:16;3.67;;;3.38;;
10711;SDS011;5407;51.234;6.804;2023-02-22T11:14:45;4.30;;;3.88;;
10711;SDS011;5407;51.234;6.804;2023-02-22T11:17:13;4.35;;;3.55;;
10711;SDS011;5407;51.234;6.804;2023-02-22T11:19:46;3.40;;;3.08;;
10711;SDS011;5407;51.234;6.804;2023-02-22T11:22:19;4.10;;;3.22;;
10711;SDS011;5407;51.234;6.804;2023-02-22T11:24:48;4.97;;;3.25;;
10711;SDS011;5407;51.234;6.804;2023-02-22T11:27:24;3.78;;;3.00;;
10711;SDS011;5407;51.234;6.804;2023-02-22T11:29:56;3.78;;;3.30;;
10711;SDS011;5407;51.234;6.804;2023-02-22T11:32:33;4.85;;;3.42;;
10711;SDS011;5407;51.234;6.804;2023-02-22T11:38:10;4.22;;;3.50;;
10711;SDS011;5407;51.234;6.804;2023-02-22T11:40:48;3.67;;;3.33;;
10711;SDS011;5407;51.234;6.804;2023-02-22T11:43:32;3.55;;;3.08;;
10711;SDS011;5407;51.234;6.804;2023-02-22T11:46:01;6.03;;;3.80;;
10711;SDS011;5407;51.234;6.804;2023-02-22T11:48:30;3.83;;;3.38;;
10711;SDS011;5407;51.234;6.804;2023-02-22T11:51:04;4.88;;;3.30;;
10711;SDS011;5407;51.234;6.804;2023-02-22T11:53:43;4.05;;;3.38;;
10711;SDS011;5407;51.234;6.804;2023-02-22T11:56:21;4.40;;;3.20;;
10711;SDS011;5407;51.234;6.804;2023-02-22T11:58:55;5.38;;;3.70;;
10711;SDS011;5407;51.234;6.804;2023-02-22T12:01:34;3.83;;;3.10;;
10711;SDS011;5407;51.234;6.804;2023-02-22T12:09:56;3.25;;;2.95;;
10711;SDS011;5407;51.234;6.804;2023-02-22T12:12:31;4.00;;;3.13;;
10711;SDS011;5407;51.234;6.804;2023-02-22T12:15:10;4.40;;;2.80;;
10711;SDS011;5407;51.234;6.804;2023-02-22T12:17:43;4.95;;;3.03;;
10711;SDS011;5407;51.234;6.804;2023-02-22T12:20:16;4.35;;;3.10;;
10711;SDS011;5407;51.234;6.804;2023-02-22T12:22:54;4.05;;;3.10;;
10711;SDS011;5407;51.234;6.804;2023-02-22T12:25:27;2.95;;;2.63;;
10711;SDS011;5407;51.234;6.804;2023-02-22T12:28:00;3.47;;;2.80;;
10711;SDS011;5407;51.234;6.804;2023-02-22T12:30:42;3.17;;;2.83;;
10711;SDS011;5407;51.234;6.804;2023-02-22T12:33:13;2.78;;;2.58;;
10711;SDS011;5407;51.234;6.804;2023-02-22T12:35:43;3.95;;;2.67;;
10711;SDS011;5407;51.234;6.804;2023-02-22T12:38:18;2.88;;;2.60;;
10711;SDS011;5407;51.234;6.804;2023-02-22T12:40:51;3.80;;;2.67;;
10711;SDS011;5407;51.234;6.804;2023-02-22T12:43:25;3.03;;;2.70;;
10711;SDS011;5407;51.234;6.804;2023-02-22T12:45:56;3.45;;;2.65;;
10711;SDS011;5407;51.234;6.804;2023-02-22T12:48:32;2.95;;;2.65;;
10711;SDS011;5407;51.234;6.804;2023-02-22T12:51:12;2.45;;;2.25;;
10711;SDS011;5407;51.234;6.804;2023-02-22T12:53:52;2.88;;;2.67;;
10711;SDS011;5407;51.234;6.804;2023-02-22T12:56:29;2.92;;;2.42;;
10711;SDS011;5407;51.234;6.804;2023-02-22T12:59:00;2.80;;;2.50;;
10711;SDS011;5407;51.234;6.804;2023-02-22T13:01:34;2.72;;;2.38;;
10711;SDS011;5407;51.234;6.804;2023-02-22T13:04:04;3.10;;;2.63;;
10711;SDS011;5407;51.234;6.804;2023-02-22T13:06:35;2.78;;;2.40;;
10711;SDS011;5407;51.234;6.804;2023-02-22T13:09:14;3.75;;;2.58;;
10711;SDS011;5407;51.234;6.804;2023-02-22T13:12:08;3.13;;;2.45;;
10711;SDS011;5407;51.234;6.804;2023-02-22T13:14:46;2.50;;;2.30;;
10711;SDS011;5407;51.234;6.804;2023-02-22T13:17:21;2.95;;;2.53;;
10711;SDS011;5407;51.234;6.804;2023-02-22T13:19:54;2.60;;;2.40;;
10711;SDS011;5407;51.234;6.804;2023-02-22T13:22:26;2.53;;;2.20;;
10711;SDS011;5407;51.234;6.804;2023-02-22T13:25:00;2.70;;;2.30;;
10711;SDS011;5407;51.234;6.804;2023-02-22T13:27:34;2.20;;;2.00;;
10711;SDS011;5407;51.234;6.804;2023-02-22T13:30:12;2.40;;;2.20;;
10711;SDS011;5407;51.234;6.804;2023-02-22T13:32:49;2.67;;;2.13;;
10711;SDS011;5407;51.234;6.804;2023-02-22T13:35:41;2.33;;;2.13;;
10711;SDS011;5407;51.234;6.804;2023-02-22T13:41:34;4.20;;;2.17;;
10711;SDS011;5407;51.234;6.804;2023-02-22T13:44:42;5.70;;;2.50;;
10711;SDS011;5407;51.234;6.804;2023-02-22T13:47:37;4.90;;;2.30;;
10711;SDS011;5407;51.234;6.804;2023-02-22T13:50:40;7.43;;;6.05;;
10711;SDS011;5407;51.234;6.804;2023-02-22T13:53:17;12.07;;;6.60;;
10711;SDS011;5407;51.234;6.804;2023-02-22T13:55:51;6.97;;;6.00;;
10711;SDS011;5407;51.234;6.804;2023-02-22T13:58:21;9.52;;;5.97;;
10711;SDS011;5407;51.234;6.804;2023-02-22T14:00:51;10.23;;;6.15;;
10711;SDS011;5407;51.234;6.804;2023-02-22T14:03:28;9.32;;;6.68;;
10711;SDS011;5407;51.234;6.804;2023-02-22T14:06:07;11.43;;;6.47;;
10711;SDS011;5407;51.234;6.804;2023-02-22T14:08:38;8.45;;;6.10;;
10711;SDS011;5407;51.234;6.804;2023-02-22T14:14:21;7.75;;;5.85;;
10711;SDS011;5407;51.234;6.804;2023-02-22T14:20:04;7.18;;;6.30;;
10711;SDS011;5407;51.234;6.804;2023-02-22T14:22:45;9.18;;;6.32;;
10711;SDS011;5407;51.234;6.804;2023-02-22T14:27:57;12.23;;;6.43;;
10711;SDS011;5407;51.234;6.804;2023-02-22T14:30:25;9.30;;;6.68;;
10711;SDS011;5407;51.234;6.804;2023-02-22T14:32:54;11.98;;;7.30;;
10711;SDS011;5407;51.234;6.804;2023-02-22T14:35:23;11.30;;;6.63;;
10711;SDS011;5407;51.234;6.804;2023-02-22T14:37:52;10.80;;;6.53;;
10711;SDS011;5407;51.234;6.804;2023-02-22T14:40:24;9.38;;;6.93;;
10711;SDS011;5407;51.234;6.804;2023-02-22T14:42:57;11.38;;;7.07;;
10711;SDS011;5407;51.234;6.804;2023-02-22T14:45:28;10.48;;;6.88;;
10711;SDS011;5407;51.234;6.804;2023-02-22T14:47:59;9.63;;;6.90;;
10711;SDS011;5407;51.234;6.804;2023-02-22T14:50:42;11.60;;;6.93;;
10711;SDS011;5407;51.234;6.804;2023-02-22T14:53:18;8.85;;;6.45;;
10711;SDS011;5407;51.234;6.804;2023-02-22T14:55:51;10.35;;;6.35;;
10711;SDS011;5407;51.234;6.804;2023-02-22T14:58:28;7.90;;;5.95;;
10711;SDS011;5407;51.234;6.804;2023-02-22T15:01:14;7.18;;;5.95;;
10711;SDS011;5407;51.234;6.804;2023-02-22T15:03:47;13.80;;;8.32;;
10711;SDS011;5407;51.234;6.804;2023-02-22T15:06:16;11.48;;;6.68;;
10711;SDS011;5407;51.234;6.804;2023-02-22T15:08:46;10.50;;;6.85;;
10711;SDS011;5407;51.234;6.804;2023-02-22T15:11:21;9.50;;;6.72;;
10711;SDS011;5407;51.234;6.804;2023-02-22T15:13:50;8.38;;;6.40;;
10711;SDS011;5407;51.234;6.804;2023-02-22T15:16:18;8.55;;;5.35;;
10711;SDS011;5407;51.234;6.804;2023-02-22T15:18:47;6.07;;;5.03;;
10711;SDS011;5407;51.234;6.804;2023-02-22T15:21:20;5.47;;;4.28;;
10711;SDS011;5407;51.234;6.804;2023-02-22T15:23:50;5.57;;;4.40;;
10711;SDS011;5407;51.234;6.804;2023-02-22T15:26:22;5.15;;;4.40;;
10711;SDS011;5407;51.234;6.804;2023-02-22T15:28:52;5.90;;;4.35;;
10711;SDS011;5407;51.234;6.804;2023-02-22T15:31:25;5.43;;;4.20;;
10711;SDS011;5407;51.234;6.804;2023-02-22T15:33:55;5.53;;;3.50;;
10711;SDS011;5407;51.234;6.804;2023-02-22T15:36:25;5.93;;;4.03;;
10711;SDS011;5407;51.234;6.804;2023-02-22T15:38:55;4.63;;;3.53;;
10711;SDS011;5407;51.234;6.804;2023-02-22T15:41:25;4.70;;;3.83;;
10711;SDS011;5407;51.234;6.804;2023-02-22T15:43:56;3.92;;;3.50;;
10711;SDS011;5407;51.234;6.804;2023-02-22T15:46:28;3.70;;;3.30;;
10711;SDS011;5407;51.234;6.804;2023-02-22T15:49:06;4.20;;;3.45;;
10711;SDS011;5407;51.234;6.804;2023-02-22T15:51:44;3.70;;;3.30;;